sensor_id;sensor_type;location;lat;lon;timestamp;P1;durP1;ratioP1;P2;durP2;ratioP2
52386;SDS011;38317;53.084;6.960;2023-06-22T00:01:58;14.35;;;9.48;;
52386;SDS011;38317;53.084;6.960;2023-06-22T00:04:24;14.98;;;9.77;;
52386;SDS011;38317;53.084;6.960;2023-06-22T00:06:50;15.55;;;10.23;;
52386;SDS011;38317;53.084;6.960;2023-06-22T00:09:16;15.23;;;10.68;;
52386;SDS011;38317;53.084;6.960;2023-06-22T00:11:41;15.02;;;10.18;;
52386;SDS011;38317;53.084;6.960;2023-06-22T00:14:07;15.25;;;10.10;;
52386;SDS011;38317;53.084;6.960;2023-06-22T00:16:33;14.93;;;9.40;;
52386;SDS011;38317;53.084;6.960;2023-06-22T00:18:59;15.00;;;10.85;;
52386;SDS011;38317;53.084;6.960;2023-06-22T00:21:27;17.33;;;11.75;;
52386;SDS011;38317;53.084;6.960;2023-06-22T00:23:52;17.08;;;11.95;;
52386;SDS011;38317;53.084;6.960;2023-06-22T00:26:18;16.65;;;11.02;;
52386;SDS011;38317;53.084;6.960;2023-06-22T00:28:46;16.83;;;10.55;;
52386;SDS011;38317;53.084;6.960;2023-06-22T00:31:11;21.40;;;10.90;;
52386;SDS011;38317;53.084;6.960;2023-06-22T00:33:37;16.30;;;10.35;;
52386;SDS011;38317;53.084;6.960;2023-06-22T00:36:03;16.75;;;11.23;;
52386;SDS011;38317;53.084;6.960;2023-06-22T00:38:29;15.45;;;10.73;;
52386;SDS011;38317;53.084;6.960;2023-06-22T00:40:56;15.07;;;11.05;;
52386;SDS011;38317;53.084;6.960;2023-06-22T00:43:22;17.20;;;10.50;;
52386;SDS011;38317;53.084;6.960;2023-06-22T00:45:47;18.55;;;11.35;;
52386;SDS011;38317;53.084;6.960;2023-06-22T00:48:13;16.38;;;11.40;;
52386;SDS011;38317;53.084;6.960;2023-06-22T00:50:40;17.08;;;11.73;;
52386;SDS011;38317;53.084;6.960;2023-06-22T00:53:06;18.02;;;11.95;;
52386;SDS011;38317;53.084;6.960;2023-06-22T00:55:37;16.77;;;12.23;;
52386;SDS011;38317;53.084;6.960;2023-06-22T00:58:07;17.88;;;12.13;;
52386;SDS011;38317;53.084;6.960;2023-06-22T01:00:35;18.85;;;12.68;;
52386;SDS011;38317;53.084;6.960;2023-06-22T01:03:02;18.17;;;12.07;;
52386;SDS011;38317;53.084;6.960;2023-06-22T01:05:29;18.20;;;12.88;;
52386;SDS011;38317;53.084;6.960;2023-06-22T01:10:51;19.95;;;12.95;;
52386;SDS011;38317;53.084;6.960;2023-06-22T01:13:35;20.48;;;13.25;;
52386;SDS011;38317;53.084;6.960;2023-06-22T01:16:16;20.92;;;13.35;;
52386;SDS011;38317;53.084;6.960;2023-06-22T01:18:50;19.95;;;12.85;;
52386;SDS011;38317;53.084;6.960;2023-06-22T01:21:20;18.13;;;12.30;;
52386;SDS011;38317;53.084;6.960;2023-06-22T01:23:55;19.65;;;12.43;;
52386;SDS011;38317;53.084;6.960;2023-06-22T01:26:35;18.75;;;12.93;;
52386;SDS011;38317;53.084;6.960;2023-06-22T01:29:11;19.75;;;13.85;;
52386;SDS011;38317;53.084;6.960;2023-06-22T01:31:40;19.95;;;14.27;;
52386;SDS011;38317;53.084;6.960;2023-06-22T01:34:08;20.65;;;13.40;;
52386;SDS011;38317;53.084;6.960;2023-06-22T01:36:34;19.40;;;13.13;;
52386;SDS011;38317;53.084;6.960;2023-06-22T01:39:02;19.70;;;14.25;;
52386;SDS011;38317;53.084;6.960;2023-06-22T01:41:29;18.08;;;13.10;;
52386;SDS011;38317;53.084;6.960;2023-06-22T01:43:56;17.83;;;12.93;;
52386;SDS011;38317;53.084;6.960;2023-06-22T01:46:22;19.50;;;13.80;;
52386;SDS011;38317;53.084;6.960;2023-06-22T01:48:48;17.70;;;12.98;;
52386;SDS011;38317;53.084;6.960;2023-06-22T01:51:15;17.05;;;12.73;;
52386;SDS011;38317;53.084;6.960;2023-06-22T01:53:41;17.65;;;12.38;;
52386;SDS011;38317;53.084;6.960;2023-06-22T01:56:07;16.42;;;11.85;;
52386;SDS011;38317;53.084;6.960;2023-06-22T01:58:33;16.75;;;11.57;;
52386;SDS011;38317;53.084;6.960;2023-06-22T02:01:12;16.58;;;11.82;;
52386;SDS011;38317;53.084;6.960;2023-06-22T02:03:44;21.60;;;13.55;;
52386;SDS011;38317;53.084;6.960;2023-06-22T02:06:27;20.85;;;13.30;;
52386;SDS011;38317;53.084;6.960;2023-06-22T02:09:01;16.75;;;12.25;;
52386;SDS011;38317;53.084;6.960;2023-06-22T02:11:30;18.20;;;13.35;;
52386;SDS011;38317;53.084;6.960;2023-06-22T02:13:58;19.20;;;13.73;;
52386;SDS011;38317;53.084;6.960;2023-06-22T02:16:24;16.80;;;12.88;;
52386;SDS011;38317;53.084;6.960;2023-06-22T02:18:54;18.13;;;13.07;;
52386;SDS011;38317;53.084;6.960;2023-06-22T02:21:27;18.30;;;12.77;;
52386;SDS011;38317;53.084;6.960;2023-06-22T02:23:52;20.58;;;13.85;;
52386;SDS011;38317;53.084;6.960;2023-06-22T02:26:18;19.10;;;13.65;;
52386;SDS011;38317;53.084;6.960;2023-06-22T02:28:44;20.88;;;14.15;;
52386;SDS011;38317;53.084;6.960;2023-06-22T02:31:11;19.73;;;14.40;;
52386;SDS011;38317;53.084;6.960;2023-06-22T02:33:36;22.60;;;13.50;;
52386;SDS011;38317;53.084;6.960;2023-06-22T02:36:02;19.73;;;14.07;;
52386;SDS011;38317;53.084;6.960;2023-06-22T02:38:30;19.00;;;14.18;;
52386;SDS011;38317;53.084;6.960;2023-06-22T02:40:59;19.48;;;13.35;;
52386;SDS011;38317;53.084;6.960;2023-06-22T02:43:25;18.40;;;13.38;;
52386;SDS011;38317;53.084;6.960;2023-06-22T02:45:51;18.15;;;13.73;;
52386;SDS011;38317;53.084;6.960;2023-06-22T02:48:17;18.13;;;13.18;;
52386;SDS011;38317;53.084;6.960;2023-06-22T02:50:42;19.13;;;13.48;;
52386;SDS011;38317;53.084;6.960;2023-06-22T02:53:08;19.02;;;13.32;;
52386;SDS011;38317;53.084;6.960;2023-06-22T02:55:34;20.17;;;13.65;;
52386;SDS011;38317;53.084;6.960;2023-06-22T02:57:59;17.83;;;12.73;;
52386;SDS011;38317;53.084;6.960;2023-06-22T03:00:30;18.35;;;12.95;;
52386;SDS011;38317;53.084;6.960;2023-06-22T03:02:56;19.02;;;13.48;;
52386;SDS011;38317;53.084;6.960;2023-06-22T03:05:22;17.33;;;12.52;;
52386;SDS011;38317;53.084;6.960;2023-06-22T03:07:49;20.80;;;14.02;;
52386;SDS011;38317;53.084;6.960;2023-06-22T03:10:15;20.70;;;13.55;;
52386;SDS011;38317;53.084;6.960;2023-06-22T03:12:41;18.58;;;12.77;;
52386;SDS011;38317;53.084;6.960;2023-06-22T03:15:08;19.52;;;13.23;;
52386;SDS011;38317;53.084;6.960;2023-06-22T03:17:36;18.58;;;13.20;;
52386;SDS011;38317;53.084;6.960;2023-06-22T03:20:04;18.75;;;13.63;;
52386;SDS011;38317;53.084;6.960;2023-06-22T03:22:34;18.60;;;13.18;;
52386;SDS011;38317;53.084;6.960;2023-06-22T03:25:01;19.35;;;14.00;;
52386;SDS011;38317;53.084;6.960;2023-06-22T03:27:27;22.20;;;15.13;;
52386;SDS011;38317;53.084;6.960;2023-06-22T03:29:52;20.55;;;13.77;;
52386;SDS011;38317;53.084;6.960;2023-06-22T03:32:18;19.55;;;13.48;;
52386;SDS011;38317;53.084;6.960;2023-06-22T03:34:44;17.58;;;13.70;;
52386;SDS011;38317;53.084;6.960;2023-06-22T03:37:13;18.67;;;13.63;;
52386;SDS011;38317;53.084;6.960;2023-06-22T03:39:40;18.70;;;13.40;;
52386;SDS011;38317;53.084;6.960;2023-06-22T03:42:06;19.85;;;13.60;;
52386;SDS011;38317;53.084;6.960;2023-06-22T03:44:32;20.52;;;15.23;;
52386;SDS011;38317;53.084;6.960;2023-06-22T03:46:58;19.48;;;14.60;;
52386;SDS011;38317;53.084;6.960;2023-06-22T03:49:24;20.85;;;14.82;;
52386;SDS011;38317;53.084;6.960;2023-06-22T03:51:49;18.67;;;14.32;;
52386;SDS011;38317;53.084;6.960;2023-06-22T03:54:15;20.15;;;14.82;;
52386;SDS011;38317;53.084;6.960;2023-06-22T03:56:41;19.50;;;14.25;;
52386;SDS011;38317;53.084;6.960;2023-06-22T03:59:06;19.83;;;14.40;;
52386;SDS011;38317;53.084;6.960;2023-06-22T04:01:32;22.38;;;15.27;;
52386;SDS011;38317;53.084;6.960;2023-06-22T04:03:58;20.00;;;14.38;;
52386;SDS011;38317;53.084;6.960;2023-06-22T04:06:23;21.92;;;16.27;;
52386;SDS011;38317;53.084;6.960;2023-06-22T04:08:49;22.60;;;15.15;;
52386;SDS011;38317;53.084;6.960;2023-06-22T04:11:19;22.50;;;16.55;;
52386;SDS011;38317;53.084;6.960;2023-06-22T04:13:44;22.20;;;16.02;;
52386;SDS011;38317;53.084;6.960;2023-06-22T04:16:10;24.63;;;16.55;;
52386;SDS011;38317;53.084;6.960;2023-06-22T04:18:36;24.77;;;16.80;;
52386;SDS011;38317;53.084;6.960;2023-06-22T04:21:02;24.90;;;17.05;;
52386;SDS011;38317;53.084;6.960;2023-06-22T04:23:28;24.92;;;17.23;;
52386;SDS011;38317;53.084;6.960;2023-06-22T04:25:53;23.85;;;16.70;;
52386;SDS011;38317;53.084;6.960;2023-06-22T04:28:21;24.40;;;17.27;;
52386;SDS011;38317;53.084;6.960;2023-06-22T04:30:47;24.95;;;17.25;;
52386;SDS011;38317;53.084;6.960;2023-06-22T04:33:13;24.80;;;17.40;;
52386;SDS011;38317;53.084;6.960;2023-06-22T04:35:40;27.80;;;18.08;;
52386;SDS011;38317;53.084;6.960;2023-06-22T04:38:09;24.85;;;17.20;;
52386;SDS011;38317;53.084;6.960;2023-06-22T04:40:35;24.85;;;17.13;;
52386;SDS011;38317;53.084;6.960;2023-06-22T04:43:01;25.23;;;16.90;;
52386;SDS011;38317;53.084;6.960;2023-06-22T04:45:28;22.35;;;17.27;;
52386;SDS011;38317;53.084;6.960;2023-06-22T04:47:56;24.60;;;17.58;;
52386;SDS011;38317;53.084;6.960;2023-06-22T04:50:22;26.88;;;18.65;;
52386;SDS011;38317;53.084;6.960;2023-06-22T04:52:48;23.13;;;16.35;;
52386;SDS011;38317;53.084;6.960;2023-06-22T04:55:15;24.00;;;17.63;;
52386;SDS011;38317;53.084;6.960;2023-06-22T04:57:46;26.65;;;18.25;;
52386;SDS011;38317;53.084;6.960;2023-06-22T05:00:16;23.80;;;16.38;;
52386;SDS011;38317;53.084;6.960;2023-06-22T05:02:48;24.25;;;17.05;;
52386;SDS011;38317;53.084;6.960;2023-06-22T05:05:14;24.25;;;16.60;;
52386;SDS011;38317;53.084;6.960;2023-06-22T05:07:44;21.67;;;15.63;;
52386;SDS011;38317;53.084;6.960;2023-06-22T05:10:13;23.65;;;16.58;;
52386;SDS011;38317;53.084;6.960;2023-06-22T05:12:40;23.98;;;16.02;;
52386;SDS011;38317;53.084;6.960;2023-06-22T05:15:09;23.38;;;15.52;;
52386;SDS011;38317;53.084;6.960;2023-06-22T05:17:36;25.73;;;15.55;;
52386;SDS011;38317;53.084;6.960;2023-06-22T05:20:02;23.30;;;15.07;;
52386;SDS011;38317;53.084;6.960;2023-06-22T05:22:31;23.02;;;15.48;;
52386;SDS011;38317;53.084;6.960;2023-06-22T05:24:57;18.38;;;11.90;;
52386;SDS011;38317;53.084;6.960;2023-06-22T05:27:22;18.20;;;12.50;;
52386;SDS011;38317;53.084;6.960;2023-06-22T05:29:48;18.63;;;12.43;;
52386;SDS011;38317;53.084;6.960;2023-06-22T05:32:14;18.27;;;12.48;;
52386;SDS011;38317;53.084;6.960;2023-06-22T05:34:39;17.13;;;11.45;;
52386;SDS011;38317;53.084;6.960;2023-06-22T05:37:05;15.20;;;11.23;;
52386;SDS011;38317;53.084;6.960;2023-06-22T05:39:31;14.70;;;10.55;;
52386;SDS011;38317;53.084;6.960;2023-06-22T05:41:57;14.57;;;10.32;;
52386;SDS011;38317;53.084;6.960;2023-06-22T05:44:22;15.30;;;10.65;;
52386;SDS011;38317;53.084;6.960;2023-06-22T05:46:48;14.05;;;9.90;;
52386;SDS011;38317;53.084;6.960;2023-06-22T05:49:15;12.63;;;9.05;;
52386;SDS011;38317;53.084;6.960;2023-06-22T05:51:41;11.80;;;8.20;;
52386;SDS011;38317;53.084;6.960;2023-06-22T05:54:07;12.48;;;8.73;;
52386;SDS011;38317;53.084;6.960;2023-06-22T05:56:33;14.27;;;10.23;;
52386;SDS011;38317;53.084;6.960;2023-06-22T05:58:59;13.10;;;10.00;;
52386;SDS011;38317;53.084;6.960;2023-06-22T06:01:25;13.20;;;8.90;;
52386;SDS011;38317;53.084;6.960;2023-06-22T06:03:51;15.18;;;9.95;;
52386;SDS011;38317;53.084;6.960;2023-06-22T06:06:18;13.07;;;9.20;;
52386;SDS011;38317;53.084;6.960;2023-06-22T06:08:46;12.18;;;8.95;;
52386;SDS011;38317;53.084;6.960;2023-06-22T06:11:13;14.20;;;9.02;;
52386;SDS011;38317;53.084;6.960;2023-06-22T06:13:39;13.05;;;8.85;;
52386;SDS011;38317;53.084;6.960;2023-06-22T06:16:05;13.77;;;9.27;;
52386;SDS011;38317;53.084;6.960;2023-06-22T06:18:31;13.27;;;9.05;;
52386;SDS011;38317;53.084;6.960;2023-06-22T06:20:56;12.70;;;8.77;;
52386;SDS011;38317;53.084;6.960;2023-06-22T06:23:22;13.63;;;9.20;;
52386;SDS011;38317;53.084;6.960;2023-06-22T06:25:48;10.65;;;7.55;;
52386;SDS011;38317;53.084;6.960;2023-06-22T06:28:13;12.40;;;8.27;;
52386;SDS011;38317;53.084;6.960;2023-06-22T06:30:39;10.93;;;7.18;;
52386;SDS011;38317;53.084;6.960;2023-06-22T06:33:06;11.57;;;7.55;;
52386;SDS011;38317;53.084;6.960;2023-06-22T06:35:33;12.57;;;7.63;;
52386;SDS011;38317;53.084;6.960;2023-06-22T06:37:59;12.43;;;8.27;;
52386;SDS011;38317;53.084;6.960;2023-06-22T06:40:25;11.82;;;8.00;;
52386;SDS011;38317;53.084;6.960;2023-06-22T06:42:51;10.70;;;8.13;;
52386;SDS011;38317;53.084;6.960;2023-06-22T06:45:18;11.65;;;8.07;;
52386;SDS011;38317;53.084;6.960;2023-06-22T06:47:47;11.63;;;7.55;;
52386;SDS011;38317;53.084;6.960;2023-06-22T06:50:13;10.68;;;7.43;;
52386;SDS011;38317;53.084;6.960;2023-06-22T06:52:39;10.85;;;7.45;;
52386;SDS011;38317;53.084;6.960;2023-06-22T06:55:06;11.73;;;7.68;;
52386;SDS011;38317;53.084;6.960;2023-06-22T06:57:35;11.20;;;6.70;;
52386;SDS011;38317;53.084;6.960;2023-06-22T07:00:02;10.68;;;6.72;;
52386;SDS011;38317;53.084;6.960;2023-06-22T07:02:35;9.55;;;6.55;;
52386;SDS011;38317;53.084;6.960;2023-06-22T07:05:01;10.35;;;7.35;;
52386;SDS011;38317;53.084;6.960;2023-06-22T07:07:29;10.85;;;6.90;;
52386;SDS011;38317;53.084;6.960;2023-06-22T07:09:55;9.90;;;6.47;;
52386;SDS011;38317;53.084;6.960;2023-06-22T07:12:21;12.05;;;6.97;;
52386;SDS011;38317;53.084;6.960;2023-06-22T07:14:46;11.00;;;6.50;;
52386;SDS011;38317;53.084;6.960;2023-06-22T07:17:12;11.57;;;7.60;;
52386;SDS011;38317;53.084;6.960;2023-06-22T07:19:38;8.95;;;6.15;;
52386;SDS011;38317;53.084;6.960;2023-06-22T07:22:05;9.30;;;6.15;;
52386;SDS011;38317;53.084;6.960;2023-06-22T07:24:31;11.73;;;6.30;;
52386;SDS011;38317;53.084;6.960;2023-06-22T07:26:57;10.68;;;6.40;;
52386;SDS011;38317;53.084;6.960;2023-06-22T07:29:24;10.10;;;6.03;;
52386;SDS011;38317;53.084;6.960;2023-06-22T07:31:51;9.55;;;5.05;;
52386;SDS011;38317;53.084;6.960;2023-06-22T07:34:18;8.90;;;4.95;;
52386;SDS011;38317;53.084;6.960;2023-06-22T07:36:44;8.32;;;5.05;;
52386;SDS011;38317;53.084;6.960;2023-06-22T07:39:14;9.30;;;5.68;;
52386;SDS011;38317;53.084;6.960;2023-06-22T07:41:39;11.02;;;5.60;;
52386;SDS011;38317;53.084;6.960;2023-06-22T07:44:08;7.15;;;4.97;;
52386;SDS011;38317;53.084;6.960;2023-06-22T07:46:34;7.78;;;4.10;;
52386;SDS011;38317;53.084;6.960;2023-06-22T07:49:00;8.90;;;5.45;;
52386;SDS011;38317;53.084;6.960;2023-06-22T07:51:26;8.27;;;5.20;;
52386;SDS011;38317;53.084;6.960;2023-06-22T07:53:52;7.55;;;4.65;;
52386;SDS011;38317;53.084;6.960;2023-06-22T07:56:18;10.07;;;5.18;;
52386;SDS011;38317;53.084;6.960;2023-06-22T07:58:45;7.65;;;4.57;;
52386;SDS011;38317;53.084;6.960;2023-06-22T08:01:11;8.98;;;5.15;;
52386;SDS011;38317;53.084;6.960;2023-06-22T08:03:37;8.55;;;5.50;;
52386;SDS011;38317;53.084;6.960;2023-06-22T08:06:04;7.82;;;5.28;;
52386;SDS011;38317;53.084;6.960;2023-06-22T08:08:33;9.73;;;5.47;;
52386;SDS011;38317;53.084;6.960;2023-06-22T08:10:59;7.00;;;4.53;;
52386;SDS011;38317;53.084;6.960;2023-06-22T08:13:25;7.55;;;4.57;;
52386;SDS011;38317;53.084;6.960;2023-06-22T08:15:50;7.88;;;4.47;;
52386;SDS011;38317;53.084;6.960;2023-06-22T08:18:16;8.85;;;4.50;;
52386;SDS011;38317;53.084;6.960;2023-06-22T08:20:42;6.50;;;4.18;;
52386;SDS011;38317;53.084;6.960;2023-06-22T08:23:07;7.03;;;4.20;;
52386;SDS011;38317;53.084;6.960;2023-06-22T08:25:33;8.65;;;5.03;;
52386;SDS011;38317;53.084;6.960;2023-06-22T08:28:00;7.93;;;5.22;;
52386;SDS011;38317;53.084;6.960;2023-06-22T08:30:26;8.32;;;4.50;;
52386;SDS011;38317;53.084;6.960;2023-06-22T08:32:52;7.38;;;4.30;;
52386;SDS011;38317;53.084;6.960;2023-06-22T08:35:20;7.40;;;4.10;;
52386;SDS011;38317;53.084;6.960;2023-06-22T08:37:49;8.32;;;4.25;;
52386;SDS011;38317;53.084;6.960;2023-06-22T08:40:18;11.43;;;4.82;;
52386;SDS011;38317;53.084;6.960;2023-06-22T08:42:48;9.48;;;5.38;;
52386;SDS011;38317;53.084;6.960;2023-06-22T08:45:14;10.65;;;5.40;;
52386;SDS011;38317;53.084;6.960;2023-06-22T08:47:40;7.38;;;4.35;;
52386;SDS011;38317;53.084;6.960;2023-06-22T08:50:07;7.45;;;3.97;;
52386;SDS011;38317;53.084;6.960;2023-06-22T08:52:34;8.05;;;4.70;;
52386;SDS011;38317;53.084;6.960;2023-06-22T08:55:00;8.35;;;3.70;;
52386;SDS011;38317;53.084;6.960;2023-06-22T08:57:26;12.00;;;4.35;;
52386;SDS011;38317;53.084;6.960;2023-06-22T08:59:52;6.28;;;3.55;;
52386;SDS011;38317;53.084;6.960;2023-06-22T09:02:18;7.25;;;4.15;;
52386;SDS011;38317;53.084;6.960;2023-06-22T09:04:47;8.60;;;3.75;;
52386;SDS011;38317;53.084;6.960;2023-06-22T09:07:20;6.47;;;3.40;;
52386;SDS011;38317;53.084;6.960;2023-06-22T09:09:48;6.70;;;3.60;;
52386;SDS011;38317;53.084;6.960;2023-06-22T09:12:14;7.35;;;3.85;;
52386;SDS011;38317;53.084;6.960;2023-06-22T09:14:40;7.57;;;4.05;;
52386;SDS011;38317;53.084;6.960;2023-06-22T09:17:06;7.93;;;4.10;;
52386;SDS011;38317;53.084;6.960;2023-06-22T09:19:31;8.80;;;3.30;;
52386;SDS011;38317;53.084;6.960;2023-06-22T09:21:57;6.10;;;3.15;;
52386;SDS011;38317;53.084;6.960;2023-06-22T09:24:23;7.63;;;3.65;;
52386;SDS011;38317;53.084;6.960;2023-06-22T09:26:49;7.30;;;3.88;;
52386;SDS011;38317;53.084;6.960;2023-06-22T09:29:15;7.32;;;3.58;;
52386;SDS011;38317;53.084;6.960;2023-06-22T09:31:41;7.72;;;3.72;;
52386;SDS011;38317;53.084;6.960;2023-06-22T09:34:07;6.93;;;4.25;;
52386;SDS011;38317;53.084;6.960;2023-06-22T09:36:33;5.85;;;3.30;;
52386;SDS011;38317;53.084;6.960;2023-06-22T09:38:59;6.80;;;3.33;;
52386;SDS011;38317;53.084;6.960;2023-06-22T09:41:30;7.15;;;3.80;;
52386;SDS011;38317;53.084;6.960;2023-06-22T09:43:56;6.45;;;3.60;;
52386;SDS011;38317;53.084;6.960;2023-06-22T09:46:22;6.47;;;2.80;;
52386;SDS011;38317;53.084;6.960;2023-06-22T09:48:50;7.07;;;3.03;;
52386;SDS011;38317;53.084;6.960;2023-06-22T09:51:16;6.47;;;2.90;;
52386;SDS011;38317;53.084;6.960;2023-06-22T09:53:43;6.60;;;3.35;;
52386;SDS011;38317;53.084;6.960;2023-06-22T09:56:09;6.60;;;3.40;;
52386;SDS011;38317;53.084;6.960;2023-06-22T09:58:40;5.95;;;3.08;;
52386;SDS011;38317;53.084;6.960;2023-06-22T10:01:09;7.75;;;3.75;;
52386;SDS011;38317;53.084;6.960;2023-06-22T10:03:35;8.43;;;3.30;;
52386;SDS011;38317;53.084;6.960;2023-06-22T10:06:01;6.55;;;3.17;;
52386;SDS011;38317;53.084;6.960;2023-06-22T10:08:27;6.78;;;3.33;;
52386;SDS011;38317;53.084;6.960;2023-06-22T10:10:53;6.20;;;3.72;;
52386;SDS011;38317;53.084;6.960;2023-06-22T10:13:19;7.00;;;3.20;;
52386;SDS011;38317;53.084;6.960;2023-06-22T10:15:45;5.97;;;2.70;;
52386;SDS011;38317;53.084;6.960;2023-06-22T10:18:18;7.40;;;3.20;;
52386;SDS011;38317;53.084;6.960;2023-06-22T10:20:48;5.78;;;2.75;;
52386;SDS011;38317;53.084;6.960;2023-06-22T10:23:18;6.03;;;3.65;;
52386;SDS011;38317;53.084;6.960;2023-06-22T10:25:47;5.25;;;2.90;;
52386;SDS011;38317;53.084;6.960;2023-06-22T10:28:13;6.28;;;2.85;;
52386;SDS011;38317;53.084;6.960;2023-06-22T10:30:42;7.05;;;3.45;;
52386;SDS011;38317;53.084;6.960;2023-06-22T10:33:08;6.30;;;2.70;;
52386;SDS011;38317;53.084;6.960;2023-06-22T10:35:35;5.65;;;2.90;;
52386;SDS011;38317;53.084;6.960;2023-06-22T10:38:02;6.55;;;3.10;;
52386;SDS011;38317;53.084;6.960;2023-06-22T10:40:28;6.25;;;3.33;;
52386;SDS011;38317;53.084;6.960;2023-06-22T10:42:54;6.78;;;3.08;;
52386;SDS011;38317;53.084;6.960;2023-06-22T10:45:20;6.43;;;2.97;;
52386;SDS011;38317;53.084;6.960;2023-06-22T10:47:46;8.00;;;3.67;;
52386;SDS011;38317;53.084;6.960;2023-06-22T10:50:12;7.78;;;3.47;;
52386;SDS011;38317;53.084;6.960;2023-06-22T10:52:38;7.40;;;3.65;;
52386;SDS011;38317;53.084;6.960;2023-06-22T10:55:05;5.03;;;3.10;;
52386;SDS011;38317;53.084;6.960;2023-06-22T10:57:31;7.40;;;3.15;;
52386;SDS011;38317;53.084;6.960;2023-06-22T10:59:56;6.25;;;3.15;;
52386;SDS011;38317;53.084;6.960;2023-06-22T11:02:23;6.25;;;3.10;;
52386;SDS011;38317;53.084;6.960;2023-06-22T11:04:49;6.25;;;3.53;;
52386;SDS011;38317;53.084;6.960;2023-06-22T11:07:15;5.97;;;3.30;;
52386;SDS011;38317;53.084;6.960;2023-06-22T11:09:42;5.15;;;2.90;;
52386;SDS011;38317;53.084;6.960;2023-06-22T11:12:08;6.60;;;2.90;;
52386;SDS011;38317;53.084;6.960;2023-06-22T11:14:34;5.63;;;2.80;;
52386;SDS011;38317;53.084;6.960;2023-06-22T11:17:00;7.95;;;3.53;;
52386;SDS011;38317;53.084;6.960;2023-06-22T11:19:26;5.97;;;3.10;;
52386;SDS011;38317;53.084;6.960;2023-06-22T11:21:51;5.88;;;3.17;;
52386;SDS011;38317;53.084;6.960;2023-06-22T11:24:17;7.35;;;3.80;;
52386;SDS011;38317;53.084;6.960;2023-06-22T11:26:43;6.45;;;3.40;;
52386;SDS011;38317;53.084;6.960;2023-06-22T11:29:09;5.80;;;3.40;;
52386;SDS011;38317;53.084;6.960;2023-06-22T11:31:35;6.63;;;3.83;;
52386;SDS011;38317;53.084;6.960;2023-06-22T11:34:02;7.38;;;3.80;;
52386;SDS011;38317;53.084;6.960;2023-06-22T11:36:28;8.63;;;3.58;;
52386;SDS011;38317;53.084;6.960;2023-06-22T11:38:56;4.55;;;2.80;;
52386;SDS011;38317;53.084;6.960;2023-06-22T11:41:22;4.95;;;2.85;;
52386;SDS011;38317;53.084;6.960;2023-06-22T11:43:47;5.13;;;3.20;;
52386;SDS011;38317;53.084;6.960;2023-06-22T11:46:13;7.55;;;3.53;;
52386;SDS011;38317;53.084;6.960;2023-06-22T11:48:39;6.78;;;3.53;;
52386;SDS011;38317;53.084;6.960;2023-06-22T11:51:05;6.93;;;3.33;;
52386;SDS011;38317;53.084;6.960;2023-06-22T11:53:31;5.30;;;3.25;;
52386;SDS011;38317;53.084;6.960;2023-06-22T11:55:57;5.72;;;3.03;;
52386;SDS011;38317;53.084;6.960;2023-06-22T11:58:23;5.15;;;2.95;;
52386;SDS011;38317;53.084;6.960;2023-06-22T12:00:48;6.07;;;3.30;;
52386;SDS011;38317;53.084;6.960;2023-06-22T12:03:15;5.68;;;2.75;;
52386;SDS011;38317;53.084;6.960;2023-06-22T12:05:41;6.78;;;3.03;;
52386;SDS011;38317;53.084;6.960;2023-06-22T12:08:07;6.38;;;3.50;;
52386;SDS011;38317;53.084;6.960;2023-06-22T12:10:33;5.32;;;3.20;;
52386;SDS011;38317;53.084;6.960;2023-06-22T12:12:59;6.70;;;3.17;;
52386;SDS011;38317;53.084;6.960;2023-06-22T12:15:25;4.57;;;2.53;;
52386;SDS011;38317;53.084;6.960;2023-06-22T12:17:52;5.50;;;3.03;;
52386;SDS011;38317;53.084;6.960;2023-06-22T12:20:17;5.35;;;3.15;;
52386;SDS011;38317;53.084;6.960;2023-06-22T12:22:43;6.95;;;3.63;;
52386;SDS011;38317;53.084;6.960;2023-06-22T12:25:09;6.65;;;3.35;;
52386;SDS011;38317;53.084;6.960;2023-06-22T12:27:36;5.32;;;2.67;;
52386;SDS011;38317;53.084;6.960;2023-06-22T12:30:02;6.00;;;2.95;;
52386;SDS011;38317;53.084;6.960;2023-06-22T12:32:28;5.38;;;2.42;;
52386;SDS011;38317;53.084;6.960;2023-06-22T12:34:54;6.10;;;2.50;;
52386;SDS011;38317;53.084;6.960;2023-06-22T12:37:20;6.95;;;3.10;;
52386;SDS011;38317;53.084;6.960;2023-06-22T12:39:46;5.78;;;3.13;;
52386;SDS011;38317;53.084;6.960;2023-06-22T12:42:12;8.63;;;3.28;;
52386;SDS011;38317;53.084;6.960;2023-06-22T12:44:38;8.05;;;3.60;;
52386;SDS011;38317;53.084;6.960;2023-06-22T12:47:04;7.75;;;3.63;;
52386;SDS011;38317;53.084;6.960;2023-06-22T12:49:30;6.15;;;3.28;;
52386;SDS011;38317;53.084;6.960;2023-06-22T12:51:56;6.32;;;2.92;;
52386;SDS011;38317;53.084;6.960;2023-06-22T12:54:22;6.20;;;3.30;;
52386;SDS011;38317;53.084;6.960;2023-06-22T12:56:49;5.03;;;2.97;;
52386;SDS011;38317;53.084;6.960;2023-06-22T12:59:15;5.47;;;3.10;;
52386;SDS011;38317;53.084;6.960;2023-06-22T13:01:42;5.32;;;2.72;;
52386;SDS011;38317;53.084;6.960;2023-06-22T13:04:10;5.30;;;3.10;;
52386;SDS011;38317;53.084;6.960;2023-06-22T13:06:40;5.80;;;2.83;;
52386;SDS011;38317;53.084;6.960;2023-06-22T13:09:06;5.78;;;3.40;;
52386;SDS011;38317;53.084;6.960;2023-06-22T13:11:33;5.45;;;2.90;;
52386;SDS011;38317;53.084;6.960;2023-06-22T13:13:59;7.05;;;3.08;;
52386;SDS011;38317;53.084;6.960;2023-06-22T13:16:25;5.78;;;3.03;;
52386;SDS011;38317;53.084;6.960;2023-06-22T13:18:51;5.20;;;2.67;;
52386;SDS011;38317;53.084;6.960;2023-06-22T13:21:16;6.65;;;2.95;;
52386;SDS011;38317;53.084;6.960;2023-06-22T13:23:42;4.70;;;2.22;;
52386;SDS011;38317;53.084;6.960;2023-06-22T13:26:08;6.15;;;2.55;;
52386;SDS011;38317;53.084;6.960;2023-06-22T13:28:33;5.05;;;2.92;;
52386;SDS011;38317;53.084;6.960;2023-06-22T13:30:59;4.88;;;2.70;;
52386;SDS011;38317;53.084;6.960;2023-06-22T13:33:25;4.82;;;2.75;;
52386;SDS011;38317;53.084;6.960;2023-06-22T13:35:51;4.75;;;2.85;;
52386;SDS011;38317;53.084;6.960;2023-06-22T13:38:16;5.70;;;2.80;;
52386;SDS011;38317;53.084;6.960;2023-06-22T13:40:42;5.13;;;2.83;;
52386;SDS011;38317;53.084;6.960;2023-06-22T13:43:08;6.90;;;2.53;;
52386;SDS011;38317;53.084;6.960;2023-06-22T13:45:34;4.78;;;2.35;;
52386;SDS011;38317;53.084;6.960;2023-06-22T13:48:00;6.90;;;2.50;;
52386;SDS011;38317;53.084;6.960;2023-06-22T13:50:26;4.55;;;2.45;;
52386;SDS011;38317;53.084;6.960;2023-06-22T13:52:51;4.22;;;2.33;;
52386;SDS011;38317;53.084;6.960;2023-06-22T13:55:17;3.95;;;2.22;;
52386;SDS011;38317;53.084;6.960;2023-06-22T13:57:46;3.35;;;1.92;;
52386;SDS011;38317;53.084;6.960;2023-06-22T14:00:11;4.70;;;2.40;;
52386;SDS011;38317;53.084;6.960;2023-06-22T14:02:38;4.95;;;2.70;;
52386;SDS011;38317;53.084;6.960;2023-06-22T14:05:04;4.80;;;2.70;;
52386;SDS011;38317;53.084;6.960;2023-06-22T14:07:31;5.43;;;3.38;;
52386;SDS011;38317;53.084;6.960;2023-06-22T14:09:56;7.32;;;3.40;;
52386;SDS011;38317;53.084;6.960;2023-06-22T14:12:23;5.97;;;3.05;;
52386;SDS011;38317;53.084;6.960;2023-06-22T14:14:49;5.82;;;3.33;;
52386;SDS011;38317;53.084;6.960;2023-06-22T14:17:15;6.53;;;2.72;;
52386;SDS011;38317;53.084;6.960;2023-06-22T14:19:40;7.43;;;3.17;;
52386;SDS011;38317;53.084;6.960;2023-06-22T14:22:06;6.63;;;3.08;;
52386;SDS011;38317;53.084;6.960;2023-06-22T14:24:32;7.85;;;3.47;;
52386;SDS011;38317;53.084;6.960;2023-06-22T14:26:58;8.85;;;2.97;;
52386;SDS011;38317;53.084;6.960;2023-06-22T14:29:24;6.53;;;3.00;;
52386;SDS011;38317;53.084;6.960;2023-06-22T14:31:50;7.18;;;2.90;;
52386;SDS011;38317;53.084;6.960;2023-06-22T14:34:16;7.53;;;3.25;;
52386;SDS011;38317;53.084;6.960;2023-06-22T14:36:42;6.40;;;3.08;;